Emden Airport

METAR ETNT TAF ETMN
3 °C
°C
-
°C
1h
Age
16:26:35
LT
15:26
UTC
0 ft

1,000

2,000

3,000

4,000

5,000

UNKN
<?= Yii::t('app', 'Wind direction') ?> <?= Yii::t('app', 'of'); ?>
060°
17:01
Sunset
75%
Humidity
Wind shear
Closed/Snow
RWY visual range
RWY condition
Vert. visibility
Min. visibility
CAVOK
Trend
Correction
Special report
1028 hPa
QNH
METAR ETNT 271420Z AUTO 06005KT //// // ////// 03/M01 Q1028 ///
Clear
1 kt
1 kt
16:00
MVFR
8 kt
17:00
MVFR
8 kt
18:00
MVFR
8 kt
19:00
MVFR
8 kt
20:00
MVFR
8 kt
21:00
MVFR
8 kt
Visibility
None
Ceiling
5 kt
Wind
metar-taf.com/EDWE

Metar-Taf.com

Visual decoder

We and third parties follow your internet behavior on our website with cookies. If you continue, we assume you agree with our cookie policy.